YBCG/OOL METAR and TAF weather

Enter ICAO airport designator
Station Type Date Time Source
YBCG METAR 2021/02/27 21:00 UTC NOAA

YBCG 272100Z AUTO 24005KT 9999 // SCT033 25/22 Q1011


Station Type Date Time Source
YBCG Decoded METAR 2021/02/27 21:00 UTC NOAA

Coolangatta Airport Aws, Australia (YBCG) 28-10S 153-30E 6M
Feb 27, 2021 - 04:00 PM EST / 2021.02.27 2100 UTC
Wind: from the WSW (240 degrees) at 6 MPH (5 KT):0
Visibility: greater than 7 mile(s):0
Sky conditions: partly cloudy
Temperature: 77 F (25 C)
Dew Point: 71 F (22 C)
Relative Humidity: 83%
Pressure (altimeter): 29.85 in. Hg (1011 hPa)
ob: YBCG 272100Z AUTO 24005KT 9999 // SCT033 25/22 Q1011
cycle: 21

Station Type Date Time Source
YBCG TAF 2021/02/27 21:03 UTC NOAA

TAF
AMD TAF YBCG 272002Z 2721/2818 23005KT 9999 -SHRA SCT015 SCT030
FM272300 03012KT 9999 NSW SCT030
FM280600 01012KT 9999 -SHRA SCT030
FM281200 34007KT 9999 NSW SCT020

Example: see airport list